createdAt,value
2018-01-26T00:01:37.742Z,96.99
2018-01-26T00:04:06.270Z,97.16
2018-01-26T00:06:34.607Z,97.04
2018-01-26T00:09:03.058Z,97.32
2018-01-26T00:11:31.527Z,97.19
2018-01-26T00:13:59.823Z,97.12
2018-01-26T00:16:28.145Z,97.00
2018-01-26T00:18:56.467Z,97.07
2018-01-26T00:21:24.952Z,96.71
2018-01-26T00:23:54.463Z,96.81
2018-01-26T00:26:22.899Z,97.02
2018-01-26T00:28:51.171Z,96.98
2018-01-26T00:31:19.510Z,97.15
2018-01-26T00:33:48.755Z,97.32
2018-01-26T00:36:17.107Z,97.26
2018-01-26T00:38:45.783Z,97.09
2018-01-26T00:41:14.316Z,97.33
2018-01-26T00:43:42.759Z,97.48
2018-01-26T00:46:11.112Z,97.28
2018-01-26T00:48:39.727Z,97.32
2018-01-26T00:51:08.026Z,97.25
2018-01-26T00:54:57.419Z,96.90
2018-01-26T00:57:25.779Z,96.87
2018-01-26T00:59:54.074Z,96.98
2018-01-26T01:02:22.402Z,97.26
2018-01-26T01:04:50.734Z,97.41
2018-01-26T01:07:19.062Z,97.41
2018-01-26T01:09:47.664Z,97.20
2018-01-26T01:12:15.990Z,97.07
2018-01-26T01:14:44.272Z,97.15
2018-01-26T01:17:12.592Z,97.00
2018-01-26T01:20:40.093Z,96.91
2018-01-26T01:23:08.408Z,96.82
2018-01-26T01:25:36.719Z,97.41
2018-01-26T01:28:05.055Z,96.98
2018-01-26T01:30:33.486Z,97.14
2018-01-26T01:33:01.775Z,97.44
2018-01-26T01:35:30.259Z,97.79
2018-01-26T01:37:58.713Z,97.81
2018-01-26T01:40:27.087Z,97.89
2018-01-26T01:42:55.362Z,97.39
2018-01-26T01:45:23.675Z,96.64
2018-01-26T01:47:51.985Z,96.22
2018-01-26T01:50:20.306Z,96.43
2018-01-26T01:52:48.608Z,96.12
2018-01-26T01:55:16.994Z,96.15
2018-01-26T01:57:45.319Z,96.33
2018-01-26T02:00:13.625Z,96.51
2018-01-26T02:02:41.955Z,96.90
2018-01-26T02:05:10.272Z,97.09
2018-01-26T02:07:38.607Z,97.14
2018-01-26T02:10:06.946Z,97.29
2018-01-26T02:12:35.280Z,97.54
2018-01-26T02:15:03.711Z,97.59
2018-01-26T02:17:32.010Z,97.35
2018-01-26T02:20:00.251Z,97.21
2018-01-26T02:22:28.630Z,96.97
2018-01-26T02:27:53.586Z,97.43
2018-01-26T02:30:23.017Z,97.40
2018-01-26T02:32:52.191Z,97.45
2018-01-26T02:35:21.904Z,97.62
2018-01-26T02:37:50.563Z,97.77
2018-01-26T02:40:19.163Z,97.83
2018-01-26T02:42:47.825Z,97.60
2018-01-26T02:45:16.804Z,97.76
2018-01-26T02:47:45.503Z,98.07
2018-01-26T02:50:14.412Z,97.71
2018-01-26T02:52:42.938Z,97.50
2018-01-26T02:55:11.675Z,97.43
2018-01-26T02:57:40.407Z,97.39
2018-01-26T03:00:09.400Z,97.44
2018-01-26T03:02:38.097Z,97.11
2018-01-26T03:05:06.803Z,97.25
2018-01-26T03:07:35.516Z,96.68
2018-01-26T03:10:04.202Z,96.99
2018-01-26T03:12:32.860Z,97.19
2018-01-26T03:15:01.668Z,97.55
2018-01-26T03:17:30.421Z,97.76
2018-01-26T03:19:59.889Z,97.81
2018-01-26T03:22:28.853Z,97.67
2018-01-26T03:24:57.888Z,97.45
2018-01-26T03:27:28.005Z,97.50
2018-01-26T03:29:56.527Z,97.67
2018-01-26T03:32:25.260Z,97.65
2018-01-26T03:34:54.067Z,97.39
2018-01-26T03:37:22.733Z,97.34
2018-01-26T03:39:51.642Z,97.21
2018-01-26T03:42:20.172Z,97.39
2018-01-26T03:44:48.829Z,97.58
2018-01-26T03:47:17.733Z,97.34
2018-01-26T03:49:46.277Z,97.34
2018-01-26T03:52:15.840Z,97.06
2018-01-26T03:54:44.568Z,96.47
2018-01-26T03:57:13.129Z,96.89
2018-01-26T03:59:41.743Z,97.17
2018-01-26T04:02:10.469Z,97.10
2018-01-26T04:04:39.271Z,97.02
2018-01-26T04:07:08.052Z,97.17
2018-01-26T04:09:36.685Z,97.40
2018-01-26T04:12:05.374Z,97.46
2018-01-26T04:14:34.118Z,97.51
2018-01-26T04:17:02.829Z,98.04
2018-01-26T04:19:31.386Z,97.90
2018-01-26T04:21:59.959Z,96.23
2018-01-26T04:24:28.816Z,95.78
2018-01-26T04:27:02.046Z,96.39
2018-01-26T04:29:30.620Z,96.63
2018-01-26T04:31:59.177Z,95.68
2018-01-26T04:34:27.777Z,94.70
2018-01-26T04:36:56.417Z,94.96
2018-01-26T04:39:24.972Z,95.61
2018-01-26T04:41:53.825Z,96.07
2018-01-26T04:44:22.604Z,95.64
2018-01-26T04:46:51.309Z,95.82
2018-01-26T04:49:20.321Z,96.65
2018-01-26T04:51:48.987Z,96.77
2018-01-26T04:54:17.567Z,96.75
2018-01-26T04:56:46.202Z,96.69
2018-01-26T04:59:14.864Z,96.45
2018-01-26T05:04:39.059Z,95.89
2018-01-26T05:07:07.507Z,95.92
2018-01-26T05:09:35.972Z,95.99
2018-01-26T05:12:04.400Z,95.26
2018-01-26T05:14:32.761Z,95.32
2018-01-26T05:17:01.145Z,96.10
2018-01-26T05:19:29.413Z,95.48
2018-01-26T05:21:57.728Z,94.71
2018-01-26T05:24:26.192Z,94.67
2018-01-26T05:26:55.921Z,94.96
2018-01-26T05:29:27.931Z,94.70
2018-01-26T05:31:57.565Z,94.55
2018-01-26T05:34:27.544Z,94.57
2018-01-26T05:36:58.174Z,94.42
2018-01-26T05:39:26.951Z,94.74
2018-01-26T05:41:55.454Z,94.61
2018-01-26T05:44:23.929Z,94.55
2018-01-26T05:46:52.260Z,94.85
2018-01-26T05:49:22.118Z,94.95
2018-01-26T05:51:50.464Z,94.80
2018-01-26T05:54:18.727Z,94.55
2018-01-26T05:56:47.174Z,94.82
2018-01-26T05:59:15.620Z,94.81
2018-01-26T06:01:44.128Z,94.36
2018-01-26T06:04:12.534Z,94.29
2018-01-26T06:06:40.920Z,94.63
2018-01-26T06:09:09.232Z,94.42
2018-01-26T06:11:37.565Z,94.64
2018-01-26T06:14:05.921Z,95.07
2018-01-26T06:16:34.231Z,94.85
2018-01-26T06:19:02.764Z,94.81
2018-01-26T06:21:31.067Z,94.95
2018-01-26T06:23:59.387Z,96.32
2018-01-26T06:26:27.838Z,95.66
2018-01-26T06:28:56.707Z,94.42
2018-01-26T06:31:25.136Z,94.17
2018-01-26T06:33:53.535Z,94.40
2018-01-26T06:36:21.963Z,94.39
2018-01-26T06:38:50.555Z,94.16
2018-01-26T06:41:18.859Z,94.67
2018-01-26T06:43:47.179Z,94.33
2018-01-26T06:46:22.100Z,94.44
2018-01-26T06:48:50.554Z,95.97
2018-01-26T06:51:18.902Z,96.45
2018-01-26T06:53:47.315Z,96.28
2018-01-26T06:56:15.647Z,96.16
2018-01-26T06:58:43.931Z,95.90
2018-01-26T07:01:12.246Z,96.08
2018-01-26T07:03:40.595Z,95.46
2018-01-26T07:06:08.920Z,95.81
2018-01-26T07:08:37.398Z,96.00
2018-01-26T07:11:05.899Z,95.36
2018-01-26T07:13:34.188Z,95.35
2018-01-26T07:16:05.400Z,95.53
2018-01-26T07:18:33.820Z,94.81
2018-01-26T07:21:02.267Z,94.25
2018-01-26T07:23:30.563Z,93.48
2018-01-26T07:25:58.904Z,94.72
2018-01-26T07:28:27.173Z,94.19
2018-01-26T07:30:55.497Z,93.89
2018-01-26T07:33:23.836Z,93.71
2018-01-26T07:35:52.155Z,93.61
2018-01-26T07:38:20.443Z,92.70
2018-01-26T07:40:48.762Z,93.29
2018-01-26T07:43:17.138Z,93.38
2018-01-26T07:45:45.666Z,93.41
2018-01-26T07:48:14.915Z,93.82
2018-01-26T07:50:43.223Z,93.74
2018-01-26T07:53:11.531Z,93.36
2018-01-26T07:55:39.843Z,93.13
2018-01-26T07:58:08.154Z,93.18
2018-01-26T08:00:36.456Z,93.16
2018-01-26T08:03:05.343Z,93.48
2018-01-26T08:05:33.798Z,93.88
2018-01-26T08:08:02.162Z,93.60
2018-01-26T08:10:30.502Z,94.06
2018-01-26T08:12:58.806Z,93.70
2018-01-26T08:15:27.215Z,93.21
2018-01-26T08:17:55.551Z,93.67
2018-01-26T08:20:24.124Z,93.27
2018-01-26T08:22:52.417Z,93.04
2018-01-26T08:25:20.743Z,92.71
2018-01-26T08:27:49.066Z,93.19
2018-01-26T08:30:17.403Z,93.18
2018-01-26T08:32:45.726Z,93.17
2018-01-26T08:35:14.254Z,93.09
2018-01-26T08:37:42.513Z,93.04
2018-01-26T08:40:11.011Z,93.30
2018-01-26T08:42:39.286Z,94.04
2018-01-26T08:45:07.604Z,93.41
2018-01-26T08:47:35.903Z,93.37
2018-01-26T08:50:04.335Z,92.51
2018-01-26T08:52:33.468Z,92.41
2018-01-26T08:55:02.118Z,93.28
2018-01-26T08:57:30.492Z,94.17
2018-01-26T08:59:58.754Z,92.76
2018-01-26T09:02:27.163Z,92.87
2018-01-26T09:04:55.466Z,92.86
2018-01-26T09:07:23.810Z,93.22
2018-01-26T09:09:52.115Z,92.76
2018-01-26T09:12:20.496Z,92.49
2018-01-26T09:14:48.891Z,92.87
2018-01-26T09:17:17.291Z,93.14
2018-01-26T09:19:45.783Z,93.42
2018-01-26T09:22:14.159Z,92.82
2018-01-26T09:24:42.499Z,92.77
2018-01-26T09:27:10.891Z,93.00
2018-01-26T09:29:39.183Z,93.27
2018-01-26T09:32:07.759Z,93.37
2018-01-26T09:34:36.052Z,93.71
2018-01-26T09:37:04.396Z,92.76
2018-01-26T09:39:32.773Z,93.34
2018-01-26T09:43:04.153Z,93.59
2018-01-26T09:45:32.491Z,93.06
2018-01-26T09:48:00.993Z,93.20
2018-01-26T09:50:29.327Z,94.09
2018-01-26T09:52:57.606Z,93.80
2018-01-26T09:55:26.099Z,94.48
2018-01-26T09:57:54.374Z,94.01
2018-01-26T10:00:22.914Z,94.24
2018-01-26T10:02:51.415Z,94.52
2018-01-26T10:05:19.765Z,95.13
2018-01-26T10:07:48.067Z,94.46
2018-01-26T10:10:16.424Z,94.13
2018-01-26T10:12:44.702Z,94.50
2018-01-26T10:15:13.035Z,94.78
2018-01-26T10:17:41.436Z,94.80
2018-01-26T10:20:09.926Z,95.48
2018-01-26T10:22:38.404Z,95.03
2018-01-26T10:25:07.744Z,95.21
2018-01-26T10:27:36.318Z,95.61
2018-01-26T10:30:04.675Z,95.23
2018-01-26T10:32:33.043Z,95.50
2018-01-26T10:35:01.300Z,95.66
2018-01-26T10:37:29.625Z,95.69
2018-01-26T10:39:57.929Z,95.78
2018-01-26T10:42:26.315Z,96.03
2018-01-26T10:44:54.634Z,96.26
2018-01-26T10:47:22.976Z,95.48
2018-01-26T10:49:51.685Z,95.22
2018-01-26T10:52:21.068Z,94.89
2018-01-26T10:54:50.306Z,94.89
2018-01-26T10:57:18.611Z,94.51
2018-01-26T10:59:47.043Z,94.17
2018-01-26T11:02:15.345Z,94.34
2018-01-26T11:04:43.623Z,94.77
2018-01-26T11:07:11.946Z,94.59
2018-01-26T11:09:46.892Z,94.88
2018-01-26T11:12:15.403Z,94.83
2018-01-26T11:14:43.849Z,94.85
2018-01-26T11:17:12.359Z,94.46
2018-01-26T11:19:40.811Z,94.62
2018-01-26T11:22:09.141Z,94.99
2018-01-26T11:24:37.526Z,95.09
2018-01-26T11:27:05.927Z,95.44
2018-01-26T11:29:34.374Z,95.61
2018-01-26T11:32:02.702Z,95.40
2018-01-26T11:34:30.985Z,95.19
2018-01-26T11:36:59.310Z,94.60
2018-01-26T11:39:27.650Z,93.87
2018-01-26T11:41:56.147Z,94.59
2018-01-26T11:44:24.456Z,93.52
2018-01-26T11:46:52.823Z,93.68
2018-01-26T11:49:21.187Z,93.32
2018-01-26T11:51:49.542Z,92.72
2018-01-26T11:54:17.924Z,92.94
2018-01-26T11:56:46.774Z,92.31
2018-01-26T11:59:15.214Z,93.43
2018-01-26T12:01:43.572Z,92.89
2018-01-26T12:04:11.858Z,92.44
2018-01-26T12:06:40.343Z,92.78
2018-01-26T12:09:08.670Z,92.08
2018-01-26T12:11:36.979Z,92.88
2018-01-26T12:14:05.282Z,92.19
2018-01-26T12:16:33.650Z,92.59
2018-01-26T12:19:02.098Z,92.62
2018-01-26T12:21:30.464Z,92.89
2018-01-26T12:23:58.738Z,92.72
2018-01-26T12:26:27.081Z,92.61
2018-01-26T12:28:55.607Z,92.35
2018-01-26T12:31:23.991Z,91.97
2018-01-26T12:33:52.289Z,92.88
2018-01-26T12:36:20.590Z,92.53
2018-01-26T12:38:48.883Z,92.42
2018-01-26T12:41:17.195Z,92.73
2018-01-26T12:43:45.586Z,92.88
2018-01-26T12:46:13.908Z,92.84
2018-01-26T12:48:42.214Z,92.16
2018-01-26T12:51:10.551Z,91.88
2018-01-26T12:53:38.840Z,92.44
2018-01-26T12:56:07.156Z,92.42
2018-01-26T12:58:35.658Z,92.54
2018-01-26T13:01:04.050Z,92.58
2018-01-26T13:03:32.397Z,92.69
2018-01-26T13:06:00.723Z,93.37
2018-01-26T13:08:29.147Z,92.95
2018-01-26T13:10:57.457Z,93.71
2018-01-26T13:13:25.732Z,93.18
2018-01-26T13:15:54.234Z,93.39
2018-01-26T13:18:22.539Z,93.25
2018-01-26T13:20:50.851Z,93.14
2018-01-26T13:23:19.236Z,92.81
